createdAt,value
2022-10-09T00:01:32.131Z,3.79
2022-10-09T00:03:59.521Z,3.98
2022-10-09T00:06:28.385Z,3.95
2022-10-09T00:08:55.087Z,3.94
2022-10-09T00:11:24.510Z,3.90
2022-10-09T00:13:51.742Z,3.86
2022-10-09T00:16:21.639Z,3.80
2022-10-09T00:18:48.537Z,3.77
2022-10-09T00:21:19.697Z,3.73
2022-10-09T00:23:46.505Z,3.54
2022-10-09T00:26:13.611Z,3.55
2022-10-09T00:28:40.407Z,3.41
2022-10-09T00:31:08.400Z,3.63
2022-10-09T00:33:36.857Z,3.59
2022-10-09T00:36:04.223Z,3.56
2022-10-09T00:38:30.787Z,3.58
2022-10-09T00:40:57.386Z,3.57
2022-10-09T00:43:42.865Z,3.52
2022-10-09T00:46:20.807Z,3.49
2022-10-09T00:48:55.059Z,3.28
2022-10-09T00:51:21.627Z,3.46
2022-10-09T00:53:48.227Z,3.44
2022-10-09T00:56:15.131Z,3.44
2022-10-09T00:58:41.682Z,3.44
2022-10-09T01:01:08.328Z,3.23
2022-10-09T01:03:34.906Z,3.41
2022-10-09T01:06:16.105Z,3.39
2022-10-09T01:08:49.517Z,3.33
2022-10-09T01:11:31.079Z,3.30
2022-10-09T01:14:04.330Z,3.31
2022-10-09T01:16:35.818Z,3.38
2022-10-09T01:19:11.019Z,3.16
2022-10-09T01:21:42.931Z,3.24
2022-10-09T01:24:20.718Z,3.15
2022-10-09T01:27:03.789Z,3.11
2022-10-09T01:29:35.409Z,3.07
2022-10-09T01:32:04.428Z,3.04
2022-10-09T01:34:32.119Z,3.01
2022-10-09T01:36:59.298Z,2.82
2022-10-09T01:39:28.623Z,2.99
2022-10-09T01:41:57.069Z,2.97
2022-10-09T01:44:26.186Z,2.67
2022-10-09T01:46:55.944Z,2.89
2022-10-09T01:49:39.553Z,2.75
2022-10-09T01:52:19.737Z,2.78
2022-10-09T01:54:58.516Z,2.82
2022-10-09T01:57:32.205Z,2.83
2022-10-09T02:00:01.828Z,2.71
2022-10-09T02:02:39.320Z,2.79
2022-10-09T02:05:07.624Z,2.75
2022-10-09T02:07:34.804Z,2.72
2022-10-09T02:10:03.370Z,2.64
2022-10-09T02:12:37.199Z,2.69
2022-10-09T02:15:04.465Z,2.68
2022-10-09T02:17:34.884Z,2.63
2022-10-09T02:20:06.477Z,2.38
2022-10-09T02:22:33.265Z,2.56
2022-10-09T02:25:04.786Z,2.55
2022-10-09T02:27:33.629Z,2.49
2022-10-09T02:30:01.214Z,2.53
2022-10-09T02:32:28.337Z,2.48
2022-10-09T02:34:54.917Z,2.45
2022-10-09T02:37:21.490Z,2.45
2022-10-09T02:39:48.215Z,2.42
2022-10-09T02:42:14.816Z,2.39
2022-10-09T02:44:42.644Z,2.38
2022-10-09T02:47:09.337Z,2.36
2022-10-09T02:49:35.877Z,2.33
2022-10-09T02:52:02.419Z,2.26
2022-10-09T02:54:28.872Z,2.29
2022-10-09T02:56:55.395Z,2.24
2022-10-09T02:59:21.871Z,2.21
2022-10-09T03:01:49.837Z,2.20
2022-10-09T03:04:16.386Z,1.99
2022-10-09T03:06:43.107Z,2.24
2022-10-09T03:09:09.620Z,2.17
2022-10-09T03:11:36.212Z,2.17
2022-10-09T03:14:02.754Z,2.14
2022-10-09T03:16:29.362Z,2.10
2022-10-09T03:18:57.252Z,2.09
2022-10-09T03:21:25.820Z,2.07
2022-10-09T03:23:52.873Z,2.07
2022-10-09T03:26:21.598Z,2.03
2022-10-09T03:28:49.703Z,2.01
2022-10-09T03:31:46.459Z,2.09
2022-10-09T03:34:06.224Z,1.92
2022-10-09T03:36:32.770Z,2.03
2022-10-09T03:38:59.308Z,1.99
2022-10-09T03:41:25.788Z,1.85
2022-10-09T03:43:52.621Z,1.91
2022-10-09T03:46:19.155Z,1.91
2022-10-09T03:48:45.834Z,1.92
2022-10-09T03:51:13.709Z,1.92
2022-10-09T03:53:40.251Z,1.90
2022-10-09T03:56:07.104Z,1.96
2022-10-09T03:58:33.688Z,1.84
2022-10-09T04:01:00.236Z,1.86
2022-10-09T04:03:26.875Z,1.86
2022-10-09T04:05:53.406Z,1.67
2022-10-09T04:08:21.626Z,1.83
2022-10-09T04:10:48.101Z,1.81
2022-10-09T04:13:14.618Z,1.76
2022-10-09T04:15:49.866Z,1.70
2022-10-09T04:18:16.963Z,1.66
2022-10-09T04:20:44.890Z,1.62
2022-10-09T04:23:11.424Z,1.61
2022-10-09T04:25:39.273Z,1.60
2022-10-09T04:28:05.884Z,1.57
2022-10-09T04:30:32.452Z,1.60
2022-10-09T04:32:58.994Z,1.56
2022-10-09T04:35:25.497Z,1.56
2022-10-09T04:37:52.104Z,1.53
2022-10-09T04:40:18.699Z,1.54
2022-10-09T04:42:46.972Z,1.54
2022-10-09T04:45:13.647Z,1.49
2022-10-09T04:47:40.245Z,1.48
2022-10-09T04:50:07.910Z,1.46
2022-10-09T04:52:34.472Z,1.42
2022-10-09T04:55:01.172Z,1.39
2022-10-09T04:57:27.765Z,1.38
2022-10-09T04:59:55.779Z,1.36
2022-10-09T05:02:22.375Z,1.31
2022-10-09T05:04:48.860Z,1.31
2022-10-09T05:07:15.459Z,1.29
2022-10-09T05:09:41.957Z,1.25
2022-10-09T05:12:08.579Z,1.23
2022-10-09T05:14:35.144Z,1.20
2022-10-09T05:17:13.780Z,1.21
2022-10-09T05:19:41.248Z,1.18
2022-10-09T05:22:07.732Z,1.18
2022-10-09T05:24:34.342Z,1.13
2022-10-09T05:27:00.882Z,0.88
2022-10-09T05:29:27.389Z,0.95
2022-10-09T05:31:53.996Z,1.04
2022-10-09T05:34:22.058Z,1.02
2022-10-09T05:36:48.556Z,0.98
2022-10-09T05:39:16.039Z,0.92
2022-10-09T05:41:42.533Z,1.03
2022-10-09T05:44:09.123Z,1.12
2022-10-09T05:46:35.707Z,1.12
2022-10-09T05:49:04.916Z,1.09
2022-10-09T05:51:34.237Z,1.07
2022-10-09T05:54:01.025Z,1.05
2022-10-09T05:56:29.074Z,1.07
2022-10-09T05:58:57.495Z,1.07
2022-10-09T06:01:25.964Z,1.07
2022-10-09T06:03:54.443Z,0.94
2022-10-09T06:06:22.841Z,1.03
2022-10-09T06:08:50.980Z,1.10
2022-10-09T06:11:19.710Z,1.10
2022-10-09T06:13:46.905Z,1.12
2022-10-09T06:16:15.139Z,0.95
2022-10-09T06:18:46.811Z,1.13
2022-10-09T06:21:15.943Z,1.13
2022-10-09T06:23:42.870Z,1.16
2022-10-09T06:26:12.923Z,1.09
2022-10-09T06:28:40.198Z,1.26
2022-10-09T06:31:08.654Z,1.28
2022-10-09T06:33:36.970Z,1.28
2022-10-09T06:36:10.378Z,1.33
2022-10-09T06:38:37.783Z,1.36
2022-10-09T06:41:06.086Z,1.41
2022-10-09T06:43:34.473Z,1.48
2022-10-09T06:46:02.025Z,1.46
2022-10-09T06:48:29.229Z,1.67
2022-10-09T06:50:55.738Z,1.38
2022-10-09T06:53:22.367Z,1.69
2022-10-09T06:55:52.502Z,1.88
2022-10-09T06:58:19.075Z,1.97
2022-10-09T07:00:47.161Z,2.06
2022-10-09T07:03:14.618Z,2.06
2022-10-09T07:05:41.180Z,2.27
2022-10-09T07:08:07.802Z,2.42
2022-10-09T07:10:34.522Z,2.48
2022-10-09T07:13:01.137Z,2.56
2022-10-09T07:15:27.722Z,2.56
2022-10-09T07:17:55.625Z,2.64
2022-10-09T07:20:22.111Z,2.78
2022-10-09T07:22:48.844Z,2.88
2022-10-09T07:25:15.673Z,2.99
2022-10-09T07:27:42.209Z,2.98
2022-10-09T07:30:09.717Z,3.23
2022-10-09T07:32:36.295Z,3.34
2022-10-09T07:35:04.924Z,3.15
2022-10-09T07:37:31.523Z,3.60
2022-10-09T07:39:58.041Z,3.73
2022-10-09T07:42:24.649Z,3.81
2022-10-09T07:44:51.378Z,3.99
2022-10-09T07:47:17.957Z,4.07
2022-10-09T07:49:44.495Z,4.16
2022-10-09T07:52:12.514Z,4.38
2022-10-09T07:54:39.022Z,4.53
2022-10-09T07:57:05.584Z,4.64
2022-10-09T07:59:32.098Z,4.79
2022-10-09T08:01:58.738Z,4.94
2022-10-09T08:04:25.285Z,5.10
2022-10-09T08:06:51.814Z,5.23
2022-10-09T08:09:19.910Z,5.31
2022-10-09T08:11:46.516Z,5.45
2022-10-09T08:14:16.739Z,5.57
2022-10-09T08:16:45.805Z,5.82
2022-10-09T08:19:12.324Z,5.99
2022-10-09T08:21:39.011Z,6.05
2022-10-09T08:24:05.869Z,6.32
2022-10-09T08:26:33.792Z,6.53
2022-10-09T08:29:02.155Z,6.60
2022-10-09T08:31:29.316Z,6.80
2022-10-09T08:33:57.625Z,7.03
2022-10-09T08:36:25.288Z,7.15
2022-10-09T08:38:52.502Z,7.34
2022-10-09T08:41:34.712Z,7.20
2022-10-09T08:44:06.108Z,7.67
2022-10-09T08:46:41.533Z,7.85
2022-10-09T08:49:18.094Z,8.04
2022-10-09T08:51:44.794Z,8.26
2022-10-09T08:54:19.170Z,8.29
2022-10-09T08:56:47.530Z,8.62
2022-10-09T08:59:15.452Z,8.83
2022-10-09T09:01:48.459Z,8.85
2022-10-09T09:04:34.637Z,9.21
2022-10-09T09:07:11.999Z,9.32
2022-10-09T09:09:47.606Z,9.60
2022-10-09T09:12:21.690Z,9.79
2022-10-09T09:15:04.145Z,9.97
2022-10-09T09:17:40.952Z,10.19
2022-10-09T09:20:15.014Z,10.32
2022-10-09T09:22:47.371Z,10.44
2022-10-09T09:25:22.542Z,10.70
2022-10-09T09:27:49.841Z,10.88
2022-10-09T09:30:21.072Z,11.02
2022-10-09T09:32:54.709Z,11.29
2022-10-09T09:35:28.592Z,11.48
2022-10-09T09:37:55.506Z,11.64
2022-10-09T09:40:45.868Z,11.81
2022-10-09T09:43:16.583Z,11.90
2022-10-09T09:45:45.220Z,12.15
2022-10-09T09:48:16.105Z,12.25
2022-10-09T09:50:56.277Z,12.37
2022-10-09T09:53:34.670Z,12.78
2022-10-09T09:56:01.332Z,12.91
2022-10-09T09:58:34.039Z,13.07
2022-10-09T10:01:03.860Z,13.23
2022-10-09T10:03:31.158Z,13.36
2022-10-09T10:05:57.933Z,13.51
2022-10-09T10:08:26.393Z,13.69
2022-10-09T10:10:55.525Z,13.80
2022-10-09T10:13:28.244Z,14.05
2022-10-09T10:15:56.890Z,14.13
2022-10-09T10:18:27.074Z,14.10
2022-10-09T10:20:55.262Z,14.43
2022-10-09T10:23:25.148Z,14.53
2022-10-09T10:25:54.089Z,14.62
2022-10-09T10:28:24.760Z,14.74
2022-10-09T10:30:55.104Z,14.73
2022-10-09T10:33:27.310Z,15.03
2022-10-09T10:35:56.223Z,14.85
2022-10-09T10:38:28.144Z,15.22
2022-10-09T10:40:58.599Z,15.28
2022-10-09T10:43:32.665Z,15.35
2022-10-09T10:46:05.850Z,15.43
2022-10-09T10:48:39.277Z,15.62
2022-10-09T10:51:15.892Z,15.62
2022-10-09T10:53:57.012Z,15.71
2022-10-09T10:56:29.466Z,15.85
2022-10-09T10:59:13.322Z,15.93
2022-10-09T11:01:48.361Z,16.06
2022-10-09T11:04:36.945Z,16.15
2022-10-09T11:07:15.250Z,16.14
2022-10-09T11:09:52.117Z,16.41
2022-10-09T11:12:46.830Z,16.47
2022-10-09T11:15:24.160Z,16.74
2022-10-09T11:17:58.996Z,16.79
2022-10-09T11:20:48.377Z,16.74
2022-10-09T11:23:26.759Z,16.84
2022-10-09T11:26:02.744Z,16.85
2022-10-09T11:28:35.538Z,16.91
2022-10-09T11:31:12.474Z,16.97
2022-10-09T11:33:45.307Z,17.12
2022-10-09T11:36:18.445Z,17.18
2022-10-09T11:38:48.622Z,17.26
2022-10-09T11:41:15.623Z,17.29
2022-10-09T11:43:54.454Z,17.44
2022-10-09T11:46:33.705Z,17.53
2022-10-09T11:49:10.119Z,17.62
2022-10-09T11:51:47.344Z,17.77
2022-10-09T11:54:16.849Z,17.84
2022-10-09T11:56:53.469Z,17.92
2022-10-09T11:59:23.044Z,18.09
2022-10-09T12:01:49.574Z,18.16
2022-10-09T12:04:32.385Z,17.69
2022-10-09T12:07:12.059Z,18.16
2022-10-09T12:09:41.485Z,18.11
2022-10-09T12:12:20.829Z,18.16
2022-10-09T12:14:49.837Z,18.18
2022-10-09T12:17:29.220Z,18.18
2022-10-09T12:20:03.845Z,18.05
2022-10-09T12:22:35.057Z,18.02
2022-10-09T12:25:06.757Z,17.95
2022-10-09T12:27:36.146Z,17.89
2022-10-09T12:30:15.736Z,17.86
2022-10-09T12:32:46.182Z,17.89
2022-10-09T12:35:20.970Z,17.97
2022-10-09T12:37:48.961Z,18.04
2022-10-09T12:40:18.218Z,18.04
2022-10-09T12:42:45.158Z,18.13
2022-10-09T12:45:16.564Z,18.03
2022-10-09T12:47:43.192Z,18.08
2022-10-09T12:50:22.094Z,17.88
2022-10-09T12:52:52.163Z,17.73
2022-10-09T12:55:25.689Z,17.84
2022-10-09T12:57:53.248Z,17.94
2022-10-09T13:00:19.950Z,17.94
2022-10-09T13:02:46.861Z,17.92
2022-10-09T13:05:13.697Z,18.04
2022-10-09T13:07:40.522Z,17.95
2022-10-09T13:10:18.120Z,17.91
2022-10-09T13:12:50.919Z,17.90
2022-10-09T13:15:30.506Z,18.00
2022-10-09T13:17:57.218Z,18.08
2022-10-09T13:20:27.605Z,18.01
2022-10-09T13:22:58.568Z,17.82
2022-10-09T13:25:28.665Z,18.03
2022-10-09T13:27:55.241Z,18.17
2022-10-09T13:30:22.597Z,18.18
2022-10-09T13:32:49.275Z,18.25
2022-10-09T13:35:16.292Z,18.23
2022-10-09T13:37:42.832Z,18.19
2022-10-09T13:40:13.874Z,18.09
2022-10-09T13:42:42.672Z,18.12
2022-10-09T13:45:10.621Z,18.12
2022-10-09T13:47:37.196Z,18.26
2022-10-09T13:50:04.402Z,18.34
2022-10-09T13:52:31.066Z,18.40
2022-10-09T13:54:57.598Z,18.41
2022-10-09T13:57:24.279Z,18.48
2022-10-09T13:59:52.144Z,18.48
2022-10-09T14:02:18.894Z,18.59
2022-10-09T14:04:45.500Z,18.65
2022-10-09T14:07:12.146Z,18.66
2022-10-09T14:09:38.978Z,18.66
2022-10-09T14:12:05.677Z,18.80
2022-10-09T14:14:32.393Z,18.66
2022-10-09T14:17:00.477Z,18.72
2022-10-09T14:19:27.027Z,18.55
2022-10-09T14:21:53.620Z,18.40
2022-10-09T14:24:20.138Z,18.54
2022-10-09T14:26:51.357Z,18.62
2022-10-09T14:29:18.168Z,18.64
2022-10-09T14:31:44.969Z,18.56
2022-10-09T14:34:13.667Z,18.43
2022-10-09T14:36:40.260Z,18.42
2022-10-09T14:39:06.828Z,18.50
2022-10-09T14:41:37.673Z,18.44
2022-10-09T14:44:04.725Z,18.54
2022-10-09T14:46:31.248Z,18.46
2022-10-09T14:48:57.837Z,18.57
2022-10-09T14:51:27.118Z,18.54
2022-10-09T14:53:56.578Z,18.53
2022-10-09T14:56:23.101Z,18.47
2022-10-09T14:58:49.874Z,18.40
2022-10-09T15:01:17.979Z,18.36
2022-10-09T15:03:45.025Z,18.40
2022-10-09T15:06:13.006Z,18.44
2022-10-09T15:08:42.073Z,18.40
2022-10-09T15:11:10.235Z,18.30
2022-10-09T15:13:37.079Z,18.24
2022-10-09T15:16:06.368Z,18.25
2022-10-09T15:18:33.446Z,18.30
2022-10-09T15:21:00.042Z,18.25
2022-10-09T15:23:26.761Z,18.43
2022-10-09T15:25:56.301Z,18.37
2022-10-09T15:28:23.094Z,18.38
2022-10-09T15:30:52.138Z,18.21
2022-10-09T15:33:18.766Z,18.34
2022-10-09T15:35:45.530Z,18.22
2022-10-09T15:38:14.010Z,18.08
2022-10-09T15:40:43.440Z,17.72
2022-10-09T15:43:11.806Z,17.79
2022-10-09T15:45:38.605Z,17.59
2022-10-09T15:48:05.562Z,17.58
2022-10-09T15:50:35.396Z,17.32
2022-10-09T15:53:02.237Z,16.78
2022-10-09T15:55:28.773Z,17.14
2022-10-09T15:57:55.321Z,17.05
2022-10-09T16:00:23.428Z,17.02
2022-10-09T16:02:50.207Z,16.90
2022-10-09T16:05:16.925Z,16.78
2022-10-09T16:07:43.446Z,16.69
2022-10-09T16:10:10.513Z,16.51
2022-10-09T16:12:37.074Z,16.38
2022-10-09T16:15:04.115Z,16.22
2022-10-09T16:17:32.038Z,16.07
2022-10-09T16:19:58.573Z,15.91
2022-10-09T16:22:25.249Z,15.74
2022-10-09T16:24:51.786Z,15.57
2022-10-09T16:27:18.373Z,15.41
2022-10-09T16:29:44.899Z,15.14
2022-10-09T16:32:11.502Z,14.93
2022-10-09T16:34:39.377Z,14.90
2022-10-09T16:37:05.909Z,14.78
2022-10-09T16:39:32.443Z,14.63
2022-10-09T16:41:59.021Z,14.37
2022-10-09T16:44:25.583Z,14.20
2022-10-09T16:46:52.533Z,14.13
2022-10-09T16:49:22.814Z,13.74
2022-10-09T16:51:52.941Z,13.80
2022-10-09T16:54:19.507Z,13.58
2022-10-09T16:56:46.073Z,13.36
2022-10-09T16:59:12.843Z,13.20
2022-10-09T17:01:39.678Z,13.02
2022-10-09T17:04:06.168Z,12.88
2022-10-09T17:06:32.833Z,12.67
2022-10-09T17:09:00.680Z,12.49
2022-10-09T17:11:29.709Z,12.29
2022-10-09T17:13:57.136Z,12.15
2022-10-09T17:16:26.379Z,12.02
2022-10-09T17:18:53.087Z,11.90
2022-10-09T17:21:20.099Z,11.67
2022-10-09T17:23:47.453Z,11.59
2022-10-09T17:26:17.236Z,11.44
2022-10-09T17:28:44.955Z,11.32
2022-10-09T17:31:15.491Z,11.20
2022-10-09T17:33:43.305Z,11.04
2022-10-09T17:36:10.461Z,10.99
2022-10-09T17:38:37.114Z,10.89
2022-10-09T17:41:04.337Z,10.77
2022-10-09T17:43:32.617Z,10.72
2022-10-09T17:45:59.419Z,10.60
2022-10-09T17:48:26.366Z,10.51
2022-10-09T17:50:54.423Z,10.37
2022-10-09T17:53:21.117Z,10.12
2022-10-09T17:55:47.646Z,10.10
2022-10-09T17:58:14.181Z,10.06
2022-10-09T18:00:42.149Z,10.01
2022-10-09T18:03:08.767Z,9.92
2022-10-09T18:05:41.327Z,9.73
2022-10-09T18:08:08.190Z,9.71
2022-10-09T18:10:34.996Z,9.60
2022-10-09T18:13:01.581Z,9.36
2022-10-09T18:15:28.092Z,9.39
2022-10-09T18:17:56.089Z,9.29
2022-10-09T18:20:22.771Z,9.31
2022-10-09T18:22:49.378Z,9.25
2022-10-09T18:25:16.058Z,9.16
2022-10-09T18:27:42.666Z,9.12
2022-10-09T18:30:10.675Z,9.04
2022-10-09T18:32:37.245Z,8.97
2022-10-09T18:35:05.666Z,8.89
2022-10-09T18:37:33.214Z,8.82
2022-10-09T18:39:59.735Z,8.74
2022-10-09T18:42:26.570Z,8.67
2022-10-09T18:44:53.090Z,8.61
2022-10-09T18:47:21.809Z,8.43
2022-10-09T18:49:52.163Z,7.76
2022-10-09T18:52:21.522Z,8.40
2022-10-09T18:54:50.389Z,8.12
2022-10-09T18:57:17.002Z,8.29
2022-10-09T18:59:43.611Z,8.13
2022-10-09T19:02:10.210Z,7.84
2022-10-09T19:04:36.802Z,8.09
2022-10-09T19:07:03.428Z,8.03
2022-10-09T19:09:31.333Z,7.97
2022-10-09T19:11:57.982Z,7.81
2022-10-09T19:14:24.501Z,7.85
2022-10-09T19:16:51.103Z,7.64
2022-10-09T19:19:17.642Z,7.54
2022-10-09T19:21:44.417Z,7.76
2022-10-09T19:24:12.104Z,7.69
2022-10-09T19:26:40.826Z,7.69
2022-10-09T19:29:07.741Z,7.36
2022-10-09T19:31:36.000Z,7.57
2022-10-09T19:34:04.522Z,7.54
2022-10-09T19:36:31.580Z,7.46
2022-10-09T19:38:58.127Z,7.37
2022-10-09T19:41:24.995Z,7.36
2022-10-09T19:43:52.906Z,7.18
2022-10-09T19:46:19.825Z,7.24
2022-10-09T19:48:46.888Z,7.08
2022-10-09T19:51:16.415Z,7.21
2022-10-09T19:53:42.926Z,7.01
2022-10-09T19:56:10.901Z,6.91
2022-10-09T19:58:39.687Z,7.15
2022-10-09T20:01:09.103Z,7.08
2022-10-09T20:03:35.666Z,7.11
2022-10-09T20:06:02.455Z,7.03
2022-10-09T20:08:29.084Z,6.96
2022-10-09T20:10:57.817Z,6.85
2022-10-09T20:13:24.343Z,6.79
2022-10-09T20:15:50.937Z,6.69
2022-10-09T20:18:18.897Z,6.71
2022-10-09T20:20:47.389Z,6.66
2022-10-09T20:23:14.614Z,6.60
2022-10-09T20:25:41.144Z,6.56
2022-10-09T20:28:07.849Z,6.54
2022-10-09T20:30:34.446Z,6.49
2022-10-09T20:33:01.382Z,6.44
2022-10-09T20:35:29.609Z,6.41
2022-10-09T20:37:57.749Z,6.35
2022-10-09T20:40:24.391Z,6.29
2022-10-09T20:42:51.291Z,6.15
2022-10-09T20:45:18.185Z,6.21
2022-10-09T20:47:44.704Z,6.17
2022-10-09T20:50:11.221Z,6.16
2022-10-09T20:52:39.129Z,6.00
2022-10-09T20:55:06.735Z,6.08
2022-10-09T20:57:33.484Z,6.04
2022-10-09T21:00:00.030Z,6.00
2022-10-09T21:02:26.557Z,5.93
2022-10-09T21:04:53.073Z,5.88
2022-10-09T21:07:19.616Z,5.87
2022-10-09T21:09:47.611Z,5.84
2022-10-09T21:12:14.276Z,5.78
2022-10-09T21:14:40.802Z,5.66
2022-10-09T21:17:07.308Z,5.59
2022-10-09T21:19:33.858Z,5.73
2022-10-09T21:22:00.375Z,5.70
2022-10-09T21:24:26.864Z,5.72
2022-10-09T21:26:54.730Z,5.70
2022-10-09T21:29:21.369Z,5.54
2022-10-09T21:31:47.954Z,5.54
2022-10-09T21:34:14.516Z,5.47
2022-10-09T21:37:02.296Z,5.46
2022-10-09T21:39:30.235Z,5.54
2022-10-09T21:41:58.222Z,5.53
2022-10-09T21:44:24.816Z,5.56
2022-10-09T21:46:51.363Z,5.49
2022-10-09T21:49:20.827Z,5.20
2022-10-09T21:51:47.466Z,5.27
2022-10-09T21:54:14.365Z,5.32
2022-10-09T21:56:40.966Z,5.03
2022-10-09T21:59:09.191Z,5.23
2022-10-09T22:01:35.990Z,5.01
2022-10-09T22:04:03.029Z,5.16
2022-10-09T22:06:29.691Z,5.13
2022-10-09T22:08:56.298Z,5.08
2022-10-09T22:11:22.848Z,5.07
2022-10-09T22:13:49.522Z,5.01
2022-10-09T22:16:17.422Z,4.85
2022-10-09T22:18:44.200Z,5.03
2022-10-09T22:21:13.660Z,4.85
2022-10-09T22:23:40.768Z,4.79
2022-10-09T22:26:11.119Z,4.98
2022-10-09T22:28:38.108Z,4.91
2022-10-09T22:31:07.075Z,4.86
2022-10-09T22:33:35.682Z,4.82
2022-10-09T22:36:07.872Z,4.83
2022-10-09T22:38:35.201Z,4.82
2022-10-09T22:41:06.468Z,4.60
2022-10-09T22:43:33.279Z,4.75
2022-10-09T22:45:59.886Z,4.75
2022-10-09T22:48:26.465Z,4.70
2022-10-09T22:50:54.608Z,4.73
2022-10-09T22:53:21.220Z,4.57
2022-10-09T22:55:47.726Z,4.65
2022-10-09T22:58:14.313Z,4.63
2022-10-09T23:00:40.845Z,4.61
2022-10-09T23:03:07.476Z,4.57
2022-10-09T23:05:33.998Z,4.51
2022-10-09T23:08:01.988Z,4.26
2022-10-09T23:10:28.531Z,4.52
2022-10-09T23:12:55.104Z,4.46
2022-10-09T23:15:21.639Z,4.49
2022-10-09T23:17:48.257Z,4.19
2022-10-09T23:20:14.879Z,4.44
2022-10-09T23:22:41.489Z,4.40
2022-10-09T23:25:10.234Z,4.26
2022-10-09T23:27:36.844Z,4.32
2022-10-09T23:30:03.761Z,4.29
2022-10-09T23:32:30.349Z,4.26
2022-10-09T23:34:56.882Z,4.04
2022-10-09T23:37:23.566Z,4.21
2022-10-09T23:39:50.085Z,4.06
2022-10-09T23:42:18.050Z,4.04
2022-10-09T23:44:46.245Z,4.01
2022-10-09T23:47:12.789Z,4.06
2022-10-09T23:49:39.471Z,4.20
2022-10-09T23:52:06.046Z,3.99
2022-10-09T23:54:32.562Z,4.13
2022-10-09T23:56:59.172Z,4.14
2022-10-09T23:59:27.089Z,4.16
